Time;durP1;ratioP1;P1;durP2;ratioP2;P2;SDS_P1;SDS_P2;PMS_P1;PMS_P2;Temp;Humidity;BMP_temperature;BMP_pressure;BME280_temperature;BME280_humidity;BME280_pressure;Samples;Min_cycle;Max_cycle;Signal;HPM_P1;HPM_P2
2023/07/21 00:01:49;;;;;;;3.75;1.48;;;14.40;99.90;;;;;;5031607;28;20129;-72
2023/07/21 00:04:17;;;;;;;3.97;1.58;;;14.40;99.90;;;;;;5031656;28;20120;-72
2023/07/21 00:06:43;;;;;;;3.35;1.60;;;14.40;99.90;;;;;;5031869;28;20029;-72
2023/07/21 00:09:09;;;;;;;3.67;1.48;;;14.40;99.90;;;;;;5031572;28;20048;-72
2023/07/21 00:11:38;;;;;;;2.40;1.30;;;14.40;99.90;;;;;;5031898;28;20409;-72
2023/07/21 00:14:05;;;;;;;2.40;1.40;;;14.40;99.90;;;;;;5031600;28;20045;-72
2023/07/21 00:16:34;;;;;;;4.30;1.88;;;14.30;99.90;;;;;;5015096;28;20410;-72
2023/07/21 00:19:01;;;;;;;4.57;1.80;;;14.30;99.90;;;;;;5015025;28;20112;-72
2023/07/21 00:21:27;;;;;;;4.47;1.77;;;14.30;99.90;;;;;;5031421;28;20053;-72
2023/07/21 00:23:52;;;;;;;3.28;1.65;;;14.20;99.90;;;;;;5031531;28;20060;-72
2023/07/21 00:26:18;;;;;;;4.20;1.70;;;14.10;99.90;;;;;;5031715;28;20033;-72
2023/07/21 00:28:44;;;;;;;3.90;1.70;;;14.10;99.90;;;;;;5031412;28;20042;-72
2023/07/21 00:31:10;;;;;;;4.18;1.65;;;14.10;99.90;;;;;;5031672;28;20041;-72
2023/07/21 00:33:36;;;;;;;4.85;2.00;;;14.10;99.90;;;;;;5031383;28;20414;-72
2023/07/21 00:36:04;;;;;;;3.28;1.55;;;14.10;99.90;;;;;;5031430;28;20041;-72
2023/07/21 00:38:30;;;;;;;3.92;1.50;;;14.00;99.90;;;;;;5031396;28;20041;-72
2023/07/21 00:40:55;;;;;;;3.15;1.80;;;14.00;99.90;;;;;;5031360;28;20045;-72
2023/07/21 00:43:21;;;;;;;2.58;1.77;;;14.00;99.90;;;;;;5031400;28;20038;-72
2023/07/21 00:45:47;;;;;;;2.30;1.50;;;14.10;99.90;;;;;;5031402;28;20138;-72
2023/07/21 00:48:16;;;;;;;5.15;1.67;;;14.00;99.90;;;;;;5031366;28;20041;-72
2023/07/21 00:50:44;;;;;;;2.33;1.60;;;14.00;99.90;;;;;;5031154;28;20038;-72
2023/07/21 00:53:13;;;;;;;3.22;1.80;;;14.00;99.90;;;;;;5031273;28;20445;-72
2023/07/21 00:55:41;;;;;;;2.92;1.50;;;14.00;99.90;;;;;;5033398;28;20489;-72
2023/07/21 00:58:11;;;;;;;2.90;1.50;;;13.90;99.90;;;;;;5034922;28;20093;-72
2023/07/21 01:00:38;;;;;;;2.70;1.30;;;13.80;99.90;;;;;;5034700;28;20051;-72
2023/07/21 01:03:05;;;;;;;4.32;1.70;;;13.90;99.90;;;;;;5034845;28;20052;-72
2023/07/21 01:05:33;;;;;;;5.68;1.80;;;13.80;99.90;;;;;;5034723;28;20449;-72
2023/07/21 01:08:01;;;;;;;4.25;1.73;;;13.90;99.90;;;;;;5034738;28;20099;-72
2023/07/21 01:10:28;;;;;;;3.20;1.63;;;13.80;99.90;;;;;;5034562;28;20409;-72
2023/07/21 01:12:53;;;;;;;3.92;1.75;;;13.80;99.90;;;;;;5034582;28;20486;-72
2023/07/21 01:15:19;;;;;;;4.60;1.42;;;13.80;99.90;;;;;;5034516;28;20045;-72
2023/07/21 01:17:48;;;;;;;3.20;1.50;;;13.80;99.90;;;;;;5034505;28;20065;-72
2023/07/21 01:20:16;;;;;;;4.20;1.63;;;13.80;99.90;;;;;;5034391;28;20121;-72
2023/07/21 01:22:51;;;;;;;3.35;1.50;;;13.80;99.90;;;;;;5034321;28;20042;-72
2023/07/21 01:25:18;;;;;;;5.38;1.70;;;13.80;99.90;;;;;;5034648;28;20037;-72
2023/07/21 01:27:49;;;;;;;5.07;1.77;;;13.80;99.90;;;;;;5034571;28;20079;-72
2023/07/21 01:30:18;;;;;;;2.17;1.52;;;13.80;99.90;;;;;;5034248;28;20044;-72
2023/07/21 01:32:46;;;;;;;5.75;1.85;;;13.80;99.90;;;;;;5034471;28;20514;-72
2023/07/21 01:35:15;;;;;;;3.50;1.70;;;13.70;99.90;;;;;;5034388;28;20049;-72
2023/07/21 01:37:43;;;;;;;3.75;1.55;;;13.70;99.90;;;;;;5034113;28;20049;-72
2023/07/21 01:40:11;;;;;;;3.67;1.48;;;13.70;99.90;;;;;;5034022;28;20080;-72
2023/07/21 01:42:37;;;;;;;2.97;1.40;;;13.70;99.90;;;;;;5033955;28;20046;-72
2023/07/21 01:45:04;;;;;;;4.00;1.77;;;13.70;99.90;;;;;;5034001;28;20387;-72
2023/07/21 01:47:32;;;;;;;3.40;1.50;;;13.60;99.90;;;;;;5034164;28;20163;-72
2023/07/21 01:49:58;;;;;;;3.03;1.67;;;13.60;99.90;;;;;;5033666;28;20486;-72
2023/07/21 01:52:30;;;;;;;2.63;1.70;;;13.60;99.90;;;;;;5017296;28;20122;-72
2023/07/21 01:55:01;;;;;;;5.53;1.70;;;13.60;99.90;;;;;;5034112;28;20111;-72
2023/07/21 01:57:32;;;;;;;5.05;2.20;;;13.60;99.90;;;;;;5033865;28;20045;-72
2023/07/21 02:00:00;;;;;;;3.50;2.10;;;13.60;99.90;;;;;;5033711;28;20059;-72
2023/07/21 02:02:27;;;;;;;4.10;1.95;;;13.60;99.90;;;;;;5033653;28;20112;-72
2023/07/21 02:04:53;;;;;;;3.75;1.90;;;13.60;99.90;;;;;;5033690;28;20033;-72
2023/07/21 02:07:20;;;;;;;2.65;1.70;;;13.50;99.90;;;;;;5032598;28;20033;-72
2023/07/21 02:09:49;;;;;;;4.00;2.10;;;13.60;99.90;;;;;;5017011;28;20038;-72
2023/07/21 02:12:14;;;;;;;3.47;1.80;;;13.60;99.90;;;;;;5017307;28;20083;-72
2023/07/21 02:14:40;;;;;;;4.03;2.00;;;13.50;99.90;;;;;;5033749;28;20467;-72
2023/07/21 02:17:06;;;;;;;3.90;2.00;;;13.50;99.90;;;;;;5033450;28;20532;-72
2023/07/21 02:19:31;;;;;;;7.35;2.65;;;13.50;99.90;;;;;;5033280;28;20045;-72
2023/07/21 02:21:57;;;;;;;5.13;2.00;;;13.50;99.90;;;;;;5016774;28;20044;-72
2023/07/21 02:24:22;;;;;;;4.60;1.80;;;13.40;99.90;;;;;;5033552;28;20137;-72
2023/07/21 02:26:48;;;;;;;4.70;1.85;;;13.40;99.90;;;;;;5033244;28;20453;-72
2023/07/21 02:29:14;;;;;;;5.40;2.13;;;13.40;99.90;;;;;;5033136;28;20072;-72
2023/07/21 02:31:39;;;;;;;3.53;1.92;;;13.40;99.90;;;;;;5033460;28;20045;-72
2023/07/21 02:34:05;;;;;;;3.13;2.10;;;13.40;99.90;;;;;;5033384;28;20049;-72
2023/07/21 02:36:31;;;;;;;3.78;2.17;;;13.40;99.90;;;;;;5016754;28;20498;-72
2023/07/21 02:38:57;;;;;;;3.28;2.20;;;13.40;99.90;;;;;;5033146;28;20398;-72
2023/07/21 02:41:22;;;;;;;3.05;2.10;;;13.40;99.90;;;;;;5016393;28;20427;-72
2023/07/21 02:43:48;;;;;;;4.10;1.90;;;13.40;99.90;;;;;;5033145;28;20083;-72
2023/07/21 02:46:14;;;;;;;3.40;1.85;;;13.40;99.90;;;;;;5016627;28;20037;-72
2023/07/21 02:48:40;;;;;;;3.70;2.45;;;13.40;99.90;;;;;;5032838;28;20402;-72
2023/07/21 02:51:05;;;;;;;4.18;2.45;;;13.30;99.90;;;;;;5033045;28;20076;-72
2023/07/21 02:53:31;;;;;;;6.32;4.07;;;13.30;99.90;;;;;;5032719;28;20037;-72
2023/07/21 02:55:59;;;;;;;6.40;3.25;;;13.30;99.90;;;;;;5032911;28;20051;-72
2023/07/21 02:58:26;;;;;;;6.45;3.10;;;13.30;99.90;;;;;;5032511;28;20041;-72
2023/07/21 03:00:54;;;;;;;7.13;3.30;;;13.30;99.90;;;;;;5016002;28;20045;-72
2023/07/21 03:03:20;;;;;;;4.82;2.40;;;13.30;99.90;;;;;;5032560;28;20037;-72
2023/07/21 03:05:46;;;;;;;3.72;2.50;;;13.20;99.90;;;;;;5032450;28;20582;-72
2023/07/21 03:08:14;;;;;;;7.28;2.55;;;13.20;99.90;;;;;;5015858;28;20034;-72
2023/07/21 03:10:40;;;;;;;5.07;2.75;;;13.20;99.90;;;;;;5032251;28;20406;-72
2023/07/21 03:13:05;;;;;;;6.28;2.55;;;13.20;99.90;;;;;;5032367;28;20049;-72
2023/07/21 03:15:31;;;;;;;7.43;2.60;;;13.20;99.90;;;;;;5032573;28;20037;-72
2023/07/21 03:17:57;;;;;;;10.85;2.85;;;13.20;99.90;;;;;;5033313;28;20429;-72
2023/07/21 03:20:22;;;;;;;7.22;2.80;;;13.10;99.90;;;;;;5032751;28;20088;-72
2023/07/21 03:22:48;;;;;;;8.93;2.58;;;13.10;99.90;;;;;;5032122;28;20387;-73
2023/07/21 03:25:14;;;;;;;8.27;2.72;;;13.10;99.90;;;;;;5032140;28;20045;-72
2023/07/21 03:27:40;;;;;;;5.50;2.58;;;13.10;99.90;;;;;;5032104;28;20072;-72
2023/07/21 03:30:07;;;;;;;7.18;3.20;;;13.10;99.90;;;;;;5032433;28;20107;-72
2023/07/21 03:32:34;;;;;;;9.20;3.53;;;13.10;99.90;;;;;;5031921;28;20037;-72
2023/07/21 03:35:02;;;;;;;8.90;3.10;;;13.00;99.90;;;;;;5032011;28;20041;-72
2023/07/21 03:37:28;;;;;;;8.55;3.58;;;13.00;99.90;;;;;;5031982;28;20095;-72
2023/07/21 03:39:54;;;;;;;8.45;3.10;;;13.00;99.90;;;;;;5031864;28;20042;-72
2023/07/21 03:42:19;;;;;;;9.27;3.47;;;13.10;99.90;;;;;;5015378;28;20038;-72
2023/07/21 03:44:49;;;;;;;5.88;2.92;;;13.00;99.90;;;;;;5031898;28;20262;-72
2023/07/21 03:47:17;;;;;;;8.90;3.15;;;13.10;99.90;;;;;;5031838;28;20048;-72
2023/07/21 03:49:43;;;;;;;4.97;2.92;;;13.00;99.90;;;;;;5031663;28;20478;-72
2023/07/21 03:52:09;;;;;;;7.90;2.80;;;13.10;99.90;;;;;;5031790;28;20041;-72
2023/07/21 03:54:35;;;;;;;11.68;4.10;;;13.00;99.90;;;;;;5031730;28;20090;-72
2023/07/21 03:57:00;;;;;;;9.57;3.20;;;13.00;99.90;;;;;;5031789;28;20124;-72
2023/07/21 03:59:26;;;;;;;7.18;3.28;;;13.00;99.90;;;;;;5031652;28;20044;-72
2023/07/21 04:01:52;;;;;;;6.63;3.00;;;13.00;99.90;;;;;;5031627;28;20041;-72
2023/07/21 04:04:17;;;;;;;6.05;2.92;;;13.00;99.90;;;;;;5031989;28;20045;-72
2023/07/21 04:06:43;;;;;;;4.78;2.95;;;13.00;99.90;;;;;;5031950;28;20036;-72
2023/07/21 04:09:12;;;;;;;6.97;3.50;;;13.00;99.90;;;;;;5031564;28;20548;-72
2023/07/21 04:11:38;;;;;;;10.15;3.05;;;13.00;99.90;;;;;;5031581;28;20041;-72
2023/07/21 04:14:03;;;;;;;7.00;2.40;;;13.10;99.90;;;;;;5015966;28;20125;-72
2023/07/21 04:16:30;;;;;;;4.55;2.53;;;13.00;99.90;;;;;;5015142;28;20092;-72
2023/07/21 04:18:56;;;;;;;6.68;2.33;;;13.00;99.90;;;;;;5031428;28;20466;-72
2023/07/21 04:21:22;;;;;;;7.80;2.72;;;13.10;99.90;;;;;;5031647;28;20080;-72
2023/07/21 04:23:48;;;;;;;5.93;2.42;;;13.10;99.90;;;;;;5031561;28;20048;-72
2023/07/21 04:26:14;;;;;;;6.13;3.28;;;13.10;99.90;;;;;;5031465;28;20042;-72
2023/07/21 04:28:41;;;;;;;5.25;2.03;;;13.10;99.90;;;;;;5031672;28;20045;-72
2023/07/21 04:31:08;;;;;;;4.75;2.22;;;13.20;99.90;;;;;;5034017;28;20044;-72
2023/07/21 04:33:35;;;;;;;6.53;2.30;;;13.20;99.90;;;;;;5035340;28;20050;-72
2023/07/21 04:36:01;;;;;;;4.60;2.10;;;13.20;99.90;;;;;;5035554;28;20045;-72
2023/07/21 04:38:27;;;;;;;5.57;2.22;;;13.20;99.90;;;;;;5035157;28;20087;-72
2023/07/21 04:40:52;;;;;;;3.40;1.92;;;13.20;99.90;;;;;;5035117;28;20069;-72
2023/07/21 04:43:19;;;;;;;3.72;2.03;;;13.30;99.90;;;;;;5035181;28;20069;-72
2023/07/21 04:45:44;;;;;;;4.30;2.22;;;13.30;99.90;;;;;;5035142;28;20045;-72
2023/07/21 04:48:10;;;;;;;4.57;2.33;;;13.30;99.90;;;;;;5035026;28;20041;-72
2023/07/21 04:50:36;;;;;;;10.25;2.63;;;13.30;99.90;;;;;;5034820;28;20037;-72
2023/07/21 04:53:04;;;;;;;6.18;2.15;;;13.30;99.90;;;;;;5034966;28;20041;-72
2023/07/21 04:55:30;;;;;;;5.57;2.08;;;13.30;99.90;;;;;;5034928;28;20033;-72
2023/07/21 04:57:56;;;;;;;7.03;2.17;;;13.30;99.90;;;;;;5034848;28;20050;-72
2023/07/21 05:00:22;;;;;;;6.03;2.38;;;13.30;99.90;;;;;;5034777;28;20033;-72
2023/07/21 05:02:49;;;;;;;4.97;2.38;;;13.40;99.90;;;;;;5034746;28;20045;-72
2023/07/21 05:05:15;;;;;;;6.28;2.10;;;13.40;99.90;;;;;;5034690;28;20441;-72
2023/07/21 05:07:40;;;;;;;3.92;2.25;;;13.40;99.90;;;;;;5034735;28;20105;-72
2023/07/21 05:10:06;;;;;;;4.43;2.50;;;13.50;99.90;;;;;;5034831;28;20060;-72
2023/07/21 05:12:32;;;;;;;5.68;3.30;;;13.60;99.90;;;;;;5018188;28;20471;-72
2023/07/21 05:14:57;;;;;;;4.70;3.03;;;13.70;99.90;;;;;;5034606;28;20038;-72
2023/07/21 05:17:23;;;;;;;4.72;3.03;;;13.70;99.90;;;;;;5034494;28;20045;-72
2023/07/21 05:19:49;;;;;;;5.47;2.92;;;13.80;99.90;;;;;;5034752;28;20045;-72
2023/07/21 05:22:14;;;;;;;4.03;2.80;;;13.80;99.90;;;;;;5034412;28;20441;-72
2023/07/21 05:24:40;;;;;;;5.32;2.60;;;13.90;99.90;;;;;;5034462;28;20044;-72
2023/07/21 05:27:07;;;;;;;8.23;3.15;;;13.90;99.90;;;;;;5034382;28;20135;-72
2023/07/21 05:29:33;;;;;;;7.47;2.72;;;14.00;99.90;;;;;;5034229;28;20029;-72
2023/07/21 05:31:58;;;;;;;8.65;2.60;;;14.00;99.90;;;;;;5034362;28;20502;-72
2023/07/21 05:34:24;;;;;;;3.88;2.53;;;14.00;99.90;;;;;;5034278;28;20037;-72
2023/07/21 05:36:49;;;;;;;5.72;2.40;;;14.10;99.90;;;;;;5034490;28;20045;-73
2023/07/21 05:39:16;;;;;;;4.72;2.50;;;14.10;99.90;;;;;;5017565;28;20033;-72
2023/07/21 05:41:41;;;;;;;7.47;2.80;;;14.20;99.90;;;;;;5033931;28;20053;-73
2023/07/21 05:44:08;;;;;;;6.82;3.17;;;14.20;99.90;;;;;;5017591;28;20037;-72
2023/07/21 05:46:33;;;;;;;4.65;2.80;;;14.30;99.90;;;;;;5034060;28;20104;-72
2023/07/21 05:48:59;;;;;;;4.35;2.92;;;14.30;99.90;;;;;;5033860;28;20069;-72
2023/07/21 05:51:25;;;;;;;7.32;3.10;;;14.40;99.90;;;;;;5034038;28;20091;-72
2023/07/21 05:53:50;;;;;;;5.85;3.30;;;14.50;99.90;;;;;;5033952;28;20046;-72
2023/07/21 05:56:16;;;;;;;6.43;2.70;;;14.60;99.90;;;;;;5033874;28;20045;-72
2023/07/21 05:58:41;;;;;;;4.15;2.70;;;14.60;99.90;;;;;;5033807;28;20045;-72
2023/07/21 06:01:10;;;;;;;6.22;2.60;;;14.70;99.90;;;;;;5033701;28;20072;-72
2023/07/21 06:03:37;;;;;;;5.45;3.20;;;14.80;99.90;;;;;;5033689;28;20042;-72
2023/07/21 06:06:04;;;;;;;6.35;2.30;;;14.90;99.90;;;;;;5033930;28;20132;-72
2023/07/21 06:08:30;;;;;;;6.65;2.80;;;14.90;99.90;;;;;;5033567;28;20049;-72
2023/07/21 06:10:57;;;;;;;5.40;2.30;;;15.00;99.90;;;;;;5033780;28;20091;-72
2023/07/21 06:13:23;;;;;;;4.97;2.53;;;15.10;99.90;;;;;;5033574;28;20045;-72
2023/07/21 06:15:49;;;;;;;5.75;2.40;;;15.20;99.90;;;;;;5033752;28;20048;-72
2023/07/21 06:18:15;;;;;;;5.80;2.60;;;15.30;99.90;;;;;;5033768;28;20045;-72
2023/07/21 06:20:40;;;;;;;4.28;2.00;;;15.40;99.90;;;;;;5033580;28;20516;-72
2023/07/21 06:23:06;;;;;;;4.50;2.40;;;15.50;99.90;;;;;;5033747;28;20048;-72
2023/07/21 06:25:32;;;;;;;5.05;2.70;;;15.60;99.90;;;;;;5017612;28;20041;-72
2023/07/21 06:27:58;;;;;;;5.63;2.30;;;15.70;99.90;;;;;;5033855;28;20524;-72
2023/07/21 06:30:23;;;;;;;2.95;1.70;;;15.80;99.90;;;;;;5033712;28;20069;-72
2023/07/21 06:32:49;;;;;;;4.63;2.00;;;15.90;99.90;;;;;;5017039;28;20037;-72
2023/07/21 06:35:15;;;;;;;7.43;2.60;;;16.00;99.90;;;;;;5016938;28;20068;-72
2023/07/21 06:37:40;;;;;;;6.05;2.47;;;16.10;99.90;;;;;;5033056;28;20541;-72
2023/07/21 06:40:09;;;;;;;5.93;2.13;;;16.20;99.90;;;;;;5033199;28;20045;-72
2023/07/21 06:42:35;;;;;;;5.50;1.58;;;16.20;99.90;;;;;;5032904;28;20049;-72
2023/07/21 06:45:01;;;;;;;4.28;1.30;;;16.30;99.90;;;;;;5033171;28;20042;-72
2023/07/21 06:47:27;;;;;;;5.55;0.90;;;16.40;99.90;;;;;;5016403;28;20056;-72
2023/07/21 06:49:52;;;;;;;6.38;1.40;;;16.50;99.90;;;;;;5016176;28;20033;-72
2023/07/21 06:52:18;;;;;;;5.20;1.23;;;16.60;99.90;;;;;;5032734;28;20037;-72
2023/07/21 06:54:44;;;;;;;3.67;0.90;;;16.60;99.90;;;;;;5032706;28;20045;-72
2023/07/21 06:57:10;;;;;;;5.63;1.27;;;16.70;99.90;;;;;;5033021;28;20048;-72
2023/07/21 06:59:36;;;;;;;4.70;1.30;;;16.80;99.90;;;;;;5033032;28;20049;-72
2023/07/21 07:02:02;;;;;;;4.57;1.00;;;16.90;99.90;;;;;;5032605;28;20045;-72
2023/07/21 07:04:28;;;;;;;2.88;1.35;;;17.00;99.90;;;;;;5033382;28;20120;-72
2023/07/21 07:06:55;;;;;;;3.53;1.23;;;17.10;99.90;;;;;;5016941;28;20033;-72
2023/07/21 07:09:22;;;;;;;3.28;1.35;;;17.20;99.90;;;;;;5032730;28;20094;-72
2023/07/21 07:11:48;;;;;;;5.00;1.60;;;17.30;99.90;;;;;;5033020;28;20046;-72
2023/07/21 07:14:13;;;;;;;5.53;2.00;;;17.40;99.90;;;;;;5032411;28;20512;-72
2023/07/21 07:16:39;;;;;;;11.25;2.45;;;17.50;99.90;;;;;;5032922;28;20048;-72
2023/07/21 07:19:06;;;;;;;3.97;1.23;;;17.50;99.90;;;;;;5032529;28;20040;-72
2023/07/21 07:21:32;;;;;;;4.57;2.05;;;17.70;99.90;;;;;;5032234;28;20117;-71
2023/07/21 07:23:58;;;;;;;4.30;1.25;;;17.80;99.90;;;;;;5016071;28;20044;-71
2023/07/21 07:26:24;;;;;;;4.13;1.23;;;17.90;99.90;;;;;;5032446;28;20554;-72
2023/07/21 07:28:49;;;;;;;3.65;1.00;;;18.00;99.90;;;;;;5032091;28;20510;-71
2023/07/21 07:31:15;;;;;;;3.13;1.15;;;18.10;99.90;;;;;;5032420;28;20437;-71
2023/07/21 07:33:40;;;;;;;2.80;0.95;;;18.10;99.30;;;;;;5032072;28;20564;-72
2023/07/21 07:36:06;;;;;;;3.45;1.20;;;18.20;99.00;;;;;;5032053;28;20103;-72
2023/07/21 07:38:32;;;;;;;3.60;1.20;;;18.20;99.00;;;;;;5032224;28;20049;-72
2023/07/21 07:41:06;;;;;;;2.80;1.35;;;18.10;98.50;;;;;;5031926;28;20482;-73
2023/07/21 07:43:32;;;;;;;3.28;1.40;;;18.20;98.20;;;;;;5032020;28;20509;-73
2023/07/21 07:45:58;;;;;;;2.28;1.55;;;18.30;98.20;;;;;;5031942;28;20044;-72
2023/07/21 07:48:24;;;;;;;6.18;1.40;;;18.30;98.10;;;;;;5032119;28;20487;-72
2023/07/21 07:50:51;;;;;;;3.28;1.00;;;18.50;98.50;;;;;;5031728;28;20045;-72
2023/07/21 07:53:17;;;;;;;3.25;1.05;;;18.50;98.00;;;;;;5031779;28;20564;-72
2023/07/21 07:55:44;;;;;;;3.13;1.00;;;18.50;97.40;;;;;;5031851;28;20073;-72
2023/07/21 07:58:10;;;;;;;2.25;0.75;;;18.60;96.10;;;;;;5032105;28;20029;-72
2023/07/21 08:00:38;;;;;;;1.83;0.70;;;18.70;96.10;;;;;;5031770;28;20038;-72
2023/07/21 08:03:04;;;;;;;2.47;0.82;;;18.90;96.10;;;;;;5032049;28;20049;-72
2023/07/21 08:05:31;;;;;;;3.88;1.10;;;19.00;96.10;;;;;;5033667;28;20063;-71
2023/07/21 08:08:00;;;;;;;1.48;0.85;;;19.20;96.20;;;;;;5036166;28;20057;-71
2023/07/21 08:10:27;;;;;;;2.00;0.80;;;19.20;95.90;;;;;;5036060;28;20099;-71
2023/07/21 08:12:54;;;;;;;2.42;0.82;;;19.40;95.10;;;;;;5036099;28;20144;-71
2023/07/21 08:15:20;;;;;;;1.40;0.70;;;19.40;93.60;;;;;;5019283;28;20556;-71
2023/07/21 08:17:45;;;;;;;3.15;0.88;;;19.50;93.60;;;;;;5035975;28;20045;-71
2023/07/21 08:20:11;;;;;;;3.97;0.98;;;19.70;93.50;;;;;;5019120;28;20409;-71
2023/07/21 08:22:37;;;;;;;3.58;1.00;;;19.70;93.20;;;;;;5035607;28;20072;-71
2023/07/21 08:25:05;;;;;;;1.20;0.70;;;19.70;92.20;;;;;;5035811;28;20038;-71
2023/07/21 08:27:33;;;;;;;2.78;0.65;;;19.80;92.40;;;;;;5035512;28;20072;-71
2023/07/21 08:29:59;;;;;;;2.72;0.80;;;19.90;92.00;;;;;;5035811;28;20040;-71
2023/07/21 08:32:25;;;;;;;3.20;0.85;;;20.10;91.50;;;;;;5035453;28;20045;-71
2023/07/21 08:34:51;;;;;;;3.00;1.00;;;20.20;90.20;;;;;;5035383;28;20124;-71
2023/07/21 08:37:16;;;;;;;3.40;0.75;;;20.30;90.00;;;;;;5035377;28;20088;-71
2023/07/21 08:39:42;;;;;;;2.47;0.85;;;20.40;89.50;;;;;;5035484;28;20045;-71
2023/07/21 08:42:11;;;;;;;3.13;1.00;;;20.50;88.90;;;;;;5035185;28;20406;-71
2023/07/21 08:44:38;;;;;;;2.35;1.08;;;20.60;88.30;;;;;;5035168;28;20437;-71
2023/07/21 08:47:04;;;;;;;3.45;0.95;;;20.70;87.00;;;;;;5018731;28;20410;-71
2023/07/21 08:49:30;;;;;;;3.50;1.08;;;20.70;85.70;;;;;;5035154;28;20552;-71
2023/07/21 08:51:55;;;;;;;3.47;1.00;;;20.90;84.10;;;;;;5035327;28;20041;-71
2023/07/21 08:54:21;;;;;;;3.88;1.10;;;21.10;83.20;;;;;;5034995;28;20037;-72
2023/07/21 08:56:47;;;;;;;3.15;0.98;;;21.20;81.40;;;;;;5034990;28;20124;-72
2023/07/21 08:59:12;;;;;;;2.72;0.85;;;21.30;80.80;;;;;;5034907;28;20045;-72
2023/07/21 09:01:38;;;;;;;2.92;0.70;;;21.40;80.00;;;;;;5034819;28;20038;-71
2023/07/21 09:04:17;;;;;;;2.20;0.90;;;21.50;79.00;;;;;;5018779;28;20121;-71
2023/07/21 09:06:51;;;;;;;4.90;0.70;;;21.70;78.80;;;;;;5034847;28;20037;-71
2023/07/21 09:09:18;;;;;;;4.32;0.90;;;21.70;76.30;;;;;;5034950;28;20045;-72
2023/07/21 09:11:43;;;;;;;5.03;1.08;;;21.80;77.20;;;;;;5034695;28;20552;-72
2023/07/21 09:14:09;;;;;;;3.03;0.82;;;21.80;75.80;;;;;;5034948;28;20041;-72
2023/07/21 09:16:37;;;;;;;1.95;1.00;;;21.70;74.80;;;;;;5034142;28;20414;-72
2023/07/21 09:19:05;;;;;;;1.70;0.70;;;21.60;74.50;;;;;;5034501;28;20045;-72
2023/07/21 09:21:31;;;;;;;2.55;1.10;;;21.60;74.80;;;;;;5034684;28;20052;-72
2023/07/21 09:24:08;;;;;;;3.42;0.93;;;21.80;75.50;;;;;;5034439;28;20615;-71
2023/07/21 09:26:34;;;;;;;2.30;1.00;;;22.00;76.00;;;;;;5018016;28;20508;-71
2023/07/21 09:29:00;;;;;;;2.15;0.90;;;22.20;75.70;;;;;;5034547;28;20034;-71
2023/07/21 09:31:33;;;;;;;2.78;1.20;;;22.10;75.10;;;;;;5034297;28;20446;-71
2023/07/21 09:34:06;;;;;;;1.33;0.70;;;22.20;72.80;;;;;;5018134;28;20045;-71
2023/07/21 09:36:32;;;;;;;3.45;0.80;;;22.30;71.70;;;;;;5018067;28;20132;-71
2023/07/21 09:39:02;;;;;;;3.72;0.90;;;22.50;73.30;;;;;;5034111;28;20037;-72
2023/07/21 09:41:32;;;;;;;1.58;0.75;;;22.70;71.40;;;;;;5034061;28;20052;-72
2023/07/21 09:43:58;;;;;;;2.30;0.85;;;22.90;72.20;;;;;;5034378;28;20132;-72
2023/07/21 09:46:24;;;;;;;2.20;0.80;;;23.10;70.10;;;;;;5034035;28;20380;-72
2023/07/21 09:48:50;;;;;;;2.08;0.80;;;23.10;68.40;;;;;;5033840;28;20537;-72
2023/07/21 09:51:18;;;;;;;2.20;0.73;;;23.10;68.60;;;;;;5034043;28;20086;-72
2023/07/21 09:53:44;;;;;;;1.75;0.80;;;23.00;68.80;;;;;;5034345;28;20096;-72
2023/07/21 09:56:12;;;;;;;1.23;0.68;;;22.90;69.40;;;;;;5017435;28;20037;-72
2023/07/21 09:59:00;;;;;;;17.88;4.55;;;22.80;70.00;;;;;;5033812;28;20049;-72
2023/07/21 10:01:26;;;;;;;9.75;2.10;;;22.60;69.60;;;;;;5034012;28;20041;-72
2023/07/21 10:03:52;;;;;;;3.13;1.10;;;22.40;69.90;;;;;;5034077;28;20083;-72
2023/07/21 10:06:19;;;;;;;3.17;1.15;;;22.30;70.40;;;;;;5033696;28;20409;-72
2023/07/21 10:08:45;;;;;;;1.88;1.00;;;22.20;69.80;;;;;;5033685;28;20049;-72
2023/07/21 10:11:12;;;;;;;2.47;0.98;;;22.10;70.30;;;;;;5033671;28;20076;-72
2023/07/21 10:13:47;;;;;;;1.55;0.90;;;21.90;71.20;;;;;;5033592;28;20056;-72
2023/07/21 10:16:13;;;;;;;2.00;0.90;;;21.80;69.70;;;;;;5033550;28;20497;-72
2023/07/21 10:19:05;;;;;;;3.13;0.93;;;21.70;70.90;;;;;;5033579;28;20045;-72
2023/07/21 10:21:50;;;;;;;3.17;0.88;;;21.70;71.50;;;;;;5033414;28;20041;-72
2023/07/21 10:24:26;;;;;;;2.97;1.10;;;21.90;70.80;;;;;;5033589;28;20033;-71
2023/07/21 10:26:59;;;;;;;2.60;0.90;;;22.20;70.30;;;;;;5033340;28;20080;-72
2023/07/21 10:29:25;;;;;;;2.22;0.90;;;22.50;69.90;;;;;;5016315;28;20045;-72
2023/07/21 10:31:55;;;;;;;2.58;0.90;;;22.60;68.60;;;;;;5033301;28;20410;-72
2023/07/21 10:34:45;;;;;;;2.65;1.10;;;22.80;69.40;;;;;;5016783;28;20125;-72
2023/07/21 10:37:10;;;;;;;2.13;1.00;;;22.80;68.10;;;;;;5022936;28;20064;-72
2023/07/21 10:39:42;;;;;;;2.67;1.10;;;22.60;68.30;;;;;;5033050;28;20041;-72
2023/07/21 10:42:09;;;;;;;2.55;1.00;;;22.50;69.30;;;;;;5033068;28;20120;-72
2023/07/21 10:44:41;;;;;;;2.75;1.10;;;22.40;69.90;;;;;;5033024;28;20090;-72
2023/07/21 10:47:19;;;;;;;1.83;0.90;;;22.30;69.50;;;;;;5033060;28;20068;-72
2023/07/21 10:49:46;;;;;;;3.13;1.00;;;22.30;68.50;;;;;;5033014;28;20045;-72
2023/07/21 10:52:12;;;;;;;2.15;1.08;;;22.30;68.40;;;;;;5032837;28;20038;-72
2023/07/21 10:54:38;;;;;;;2.60;1.10;;;22.40;67.90;;;;;;5032821;28;20041;-72
2023/07/21 10:57:05;;;;;;;2.60;0.98;;;22.40;68.20;;;;;;5032754;28;20076;-72
2023/07/21 10:59:35;;;;;;;1.70;1.13;;;22.30;68.40;;;;;;5032626;28;20040;-72
2023/07/21 11:02:03;;;;;;;1.73;1.05;;;22.40;67.10;;;;;;5032575;28;20041;-72
2023/07/21 11:04:30;;;;;;;4.35;1.10;;;22.30;67.30;;;;;;5032612;28;20048;-72
2023/07/21 11:06:57;;;;;;;3.15;1.13;;;22.30;66.70;;;;;;5016133;28;20517;-72
2023/07/21 11:09:24;;;;;;;2.13;1.13;;;22.20;67.40;;;;;;5032699;28;20144;-72
2023/07/21 11:11:52;;;;;;;4.05;1.13;;;22.10;67.20;;;;;;5032457;28;20072;-72
2023/07/21 11:14:24;;;;;;;2.38;1.15;;;22.00;67.00;;;;;;5015984;28;20060;-72
2023/07/21 11:16:51;;;;;;;2.03;0.90;;;22.10;67.50;;;;;;5032428;28;20037;-72
2023/07/21 11:19:18;;;;;;;3.13;0.80;;;22.10;67.70;;;;;;5032304;28;20103;-72
2023/07/21 11:21:43;;;;;;;1.20;0.80;;;22.10;68.20;;;;;;5032234;28;20045;-75
2023/07/21 11:24:09;;;;;;;4.10;0.98;;;22.20;68.40;;;;;;5032220;28;20117;-72
2023/07/21 11:26:39;;;;;;;2.20;0.70;;;22.30;68.00;;;;;;5033342;28;20037;-72
2023/07/21 11:29:08;;;;;;;2.17;0.90;;;22.40;66.30;;;;;;5032739;28;20095;-72
2023/07/21 11:31:36;;;;;;;2.97;0.80;;;22.60;65.00;;;;;;5016014;28;20042;-72
2023/07/21 11:34:02;;;;;;;4.22;0.90;;;22.90;64.70;;;;;;5032166;28;20087;-72
2023/07/21 11:36:30;;;;;;;1.42;0.65;;;23.10;64.60;;;;;;5032071;28;20045;-72
2023/07/21 11:39:07;;;;;;;3.20;1.00;;;23.30;64.30;;;;;;5031893;28;20072;-72
2023/07/21 11:41:41;;;;;;;1.42;0.75;;;23.60;65.20;;;;;;5015584;28;20041;-72
2023/07/21 11:44:41;;;;;;;2.88;0.77;;;23.80;64.50;;;;;;5032275;28;20128;-72
2023/07/21 11:47:17;;;;;;;0.95;0.50;;;24.00;62.20;;;;;;4998940;28;20103;-72
2023/07/21 11:49:44;;;;;;;1.33;0.80;;;24.20;61.70;;;;;;5031851;28;20073;-72
2023/07/21 11:52:22;;;;;;;1.05;0.52;;;24.50;61.90;;;;;;5031995;28;20049;-72
2023/07/21 11:54:47;;;;;;;3.90;0.80;;;24.90;60.80;;;;;;5032202;28;20049;-72
2023/07/21 11:57:13;;;;;;;4.78;0.90;;;25.20;58.80;;;;;;5031907;28;20037;-72
2023/07/21 11:59:38;;;;;;;1.23;0.55;;;25.40;58.00;;;;;;5032016;28;20049;-72
2023/07/21 12:02:08;;;;;;;3.58;0.80;;;25.60;57.60;;;;;;5031887;28;20048;-72
2023/07/21 12:04:35;;;;;;;9.63;1.00;;;25.70;57.70;;;;;;5031755;28;20044;-71
2023/07/21 12:07:02;;;;;;;1.55;0.75;;;25.60;57.70;;;;;;5032065;28;20085;-72
2023/07/21 12:09:28;;;;;;;3.40;0.95;;;25.60;57.10;;;;;;5031957;28;20438;-72
2023/07/21 12:11:55;;;;;;;2.58;0.90;;;25.50;58.10;;;;;;5031738;28;20521;-72
2023/07/21 12:14:23;;;;;;;1.42;0.70;;;25.40;56.60;;;;;;5031958;28;20494;-72
2023/07/21 12:16:50;;;;;;;1.25;0.60;;;25.10;56.80;;;;;;5031712;28;20167;-72
2023/07/21 12:19:16;;;;;;;0.90;0.60;;;24.90;57.70;;;;;;5031630;28;20508;-72
2023/07/21 12:21:41;;;;;;;1.67;0.50;;;24.70;57.70;;;;;;5031760;28;20080;-72
2023/07/21 12:24:07;;;;;;;3.42;0.60;;;24.70;56.60;;;;;;5031620;28;20506;-72
2023/07/21 12:26:33;;;;;;;1.75;0.85;;;24.60;57.00;;;;;;5031655;28;20120;-72
2023/07/21 12:28:59;;;;;;;1.75;0.80;;;24.70;58.00;;;;;;5031515;28;20048;-72
2023/07/21 12:31:25;;;;;;;3.53;0.70;;;24.50;58.20;;;;;;5031608;28;20033;-72
2023/07/21 12:33:51;;;;;;;1.83;0.60;;;24.30;58.10;;;;;;5031775;28;20111;-72
2023/07/21 12:36:18;;;;;;;2.05;0.82;;;24.10;58.40;;;;;;5031520;28;20433;-73
2023/07/21 12:38:44;;;;;;;1.10;0.70;;;23.90;58.70;;;;;;5031413;28;21342;-72
2023/07/21 12:41:11;;;;;;;0.88;0.50;;;23.70;58.50;;;;;;5031419;28;20140;-72
2023/07/21 12:43:37;;;;;;;1.58;0.82;;;23.60;58.30;;;;;;5031443;28;20068;-72
2023/07/21 12:46:04;;;;;;;1.13;0.55;;;23.40;59.10;;;;;;5015047;28;20038;-72